sensor_id;sensor_type;location;lat;lon;timestamp;P1;durP1;ratioP1;P2;durP2;ratioP2
3943;SDS011;1986;52.546;13.428;2022-11-15T00:02:53;4.30;;;2.70;;
3943;SDS011;1986;52.546;13.428;2022-11-15T00:05:21;2.90;;;2.70;;
3943;SDS011;1986;52.546;13.428;2022-11-15T00:07:49;6.73;;;5.23;;
3943;SDS011;1986;52.546;13.428;2022-11-15T00:10:19;3.77;;;3.47;;
3943;SDS011;1986;52.546;13.428;2022-11-15T00:12:49;14.23;;;6.40;;
3943;SDS011;1986;52.546;13.428;2022-11-15T00:15:17;24.23;;;4.23;;
3943;SDS011;1986;52.546;13.428;2022-11-15T00:17:48;2.37;;;2.17;;
3943;SDS011;1986;52.546;13.428;2022-11-15T00:20:22;4.10;;;3.30;;
3943;SDS011;1986;52.546;13.428;2022-11-15T00:22:54;3.43;;;3.23;;
3943;SDS011;1986;52.546;13.428;2022-11-15T00:25:38;14.93;;;6.70;;
3943;SDS011;1986;52.546;13.428;2022-11-15T00:28:07;7.20;;;5.23;;
3943;SDS011;1986;52.546;13.428;2022-11-15T00:30:34;15.33;;;7.90;;
3943;SDS011;1986;52.546;13.428;2022-11-15T00:33:04;1.10;;;1.10;;
3943;SDS011;1986;52.546;13.428;2022-11-15T00:35:38;0.90;;;0.90;;
3943;SDS011;1986;52.546;13.428;2022-11-15T00:38:06;2.47;;;2.37;;
3943;SDS011;1986;52.546;13.428;2022-11-15T00:40:34;3.17;;;2.93;;
3943;SDS011;1986;52.546;13.428;2022-11-15T00:43:01;6.10;;;4.27;;
3943;SDS011;1986;52.546;13.428;2022-11-15T00:45:29;3.50;;;3.20;;
3943;SDS011;1986;52.546;13.428;2022-11-15T00:47:59;0.90;;;0.90;;
3943;SDS011;1986;52.546;13.428;2022-11-15T00:50:28;2.13;;;1.93;;
3943;SDS011;1986;52.546;13.428;2022-11-15T00:52:59;5.57;;;3.97;;
3943;SDS011;1986;52.546;13.428;2022-11-15T00:55:26;10.13;;;6.37;;
3943;SDS011;1986;52.546;13.428;2022-11-15T00:57:54;3.13;;;2.83;;
3943;SDS011;1986;52.546;13.428;2022-11-15T01:00:21;3.70;;;3.40;;
3943;SDS011;1986;52.546;13.428;2022-11-15T01:02:49;7.23;;;6.73;;
3943;SDS011;1986;52.546;13.428;2022-11-15T01:05:16;4.10;;;1.10;;
3943;SDS011;1986;52.546;13.428;2022-11-15T01:07:43;7.63;;;5.23;;
3943;SDS011;1986;52.546;13.428;2022-11-15T01:10:13;10.57;;;6.33;;
3943;SDS011;1986;52.546;13.428;2022-11-15T01:12:42;2.20;;;1.97;;
3943;SDS011;1986;52.546;13.428;2022-11-15T01:15:10;8.83;;;6.43;;
3943;SDS011;1986;52.546;13.428;2022-11-15T01:17:37;7.60;;;5.53;;
3943;SDS011;1986;52.546;13.428;2022-11-15T01:20:05;4.10;;;3.80;;
3943;SDS011;1986;52.546;13.428;2022-11-15T01:22:34;12.77;;;4.23;;
3943;SDS011;1986;52.546;13.428;2022-11-15T01:25:01;2.97;;;1.60;;
3943;SDS011;1986;52.546;13.428;2022-11-15T01:27:34;0.80;;;0.80;;
3943;SDS011;1986;52.546;13.428;2022-11-15T01:30:07;0.60;;;0.60;;
3943;SDS011;1986;52.546;13.428;2022-11-15T01:32:37;2.40;;;2.30;;
3943;SDS011;1986;52.546;13.428;2022-11-15T01:35:07;1.27;;;1.27;;
3943;SDS011;1986;52.546;13.428;2022-11-15T01:37:38;4.50;;;2.80;;
3943;SDS011;1986;52.546;13.428;2022-11-15T01:40:16;2.17;;;2.10;;
3943;SDS011;1986;52.546;13.428;2022-11-15T01:42:45;0.70;;;0.70;;
3943;SDS011;1986;52.546;13.428;2022-11-15T01:45:16;0.60;;;0.60;;
3943;SDS011;1986;52.546;13.428;2022-11-15T01:47:44;1.47;;;1.37;;
3943;SDS011;1986;52.546;13.428;2022-11-15T01:50:19;2.77;;;2.53;;
3943;SDS011;1986;52.546;13.428;2022-11-15T01:52:50;7.13;;;3.53;;
3943;SDS011;1986;52.546;13.428;2022-11-15T01:55:19;1.00;;;1.00;;
3943;SDS011;1986;52.546;13.428;2022-11-15T01:57:54;1.57;;;1.57;;
3943;SDS011;1986;52.546;13.428;2022-11-15T02:00:26;6.13;;;4.33;;
3943;SDS011;1986;52.546;13.428;2022-11-15T02:02:56;16.83;;;4.23;;
3943;SDS011;1986;52.546;13.428;2022-11-15T02:05:24;1.10;;;1.00;;
3943;SDS011;1986;52.546;13.428;2022-11-15T02:07:51;6.00;;;3.50;;
3943;SDS011;1986;52.546;13.428;2022-11-15T02:10:20;2.50;;;2.30;;
3943;SDS011;1986;52.546;13.428;2022-11-15T02:12:48;0.60;;;0.60;;
3943;SDS011;1986;52.546;13.428;2022-11-15T02:15:18;12.93;;;3.30;;
3943;SDS011;1986;52.546;13.428;2022-11-15T02:17:49;3.13;;;2.80;;
3943;SDS011;1986;52.546;13.428;2022-11-15T02:26:25;1.30;;;1.03;;
3943;SDS011;1986;52.546;13.428;2022-11-15T02:29:10;1.63;;;1.63;;
3943;SDS011;1986;52.546;13.428;2022-11-15T02:31:43;5.13;;;2.37;;
3943;SDS011;1986;52.546;13.428;2022-11-15T02:34:21;1.03;;;0.70;;
3943;SDS011;1986;52.546;13.428;2022-11-15T02:36:57;2.03;;;1.93;;
3943;SDS011;1986;52.546;13.428;2022-11-15T02:39:33;0.53;;;0.53;;
3943;SDS011;1986;52.546;13.428;2022-11-15T02:42:09;6.47;;;3.40;;
3943;SDS011;1986;52.546;13.428;2022-11-15T02:44:55;0.63;;;0.63;;
3943;SDS011;1986;52.546;13.428;2022-11-15T02:47:26;2.13;;;1.37;;
3943;SDS011;1986;52.546;13.428;2022-11-15T02:50:02;0.73;;;0.70;;
3943;SDS011;1986;52.546;13.428;2022-11-15T02:52:34;1.40;;;1.40;;
3943;SDS011;1986;52.546;13.428;2022-11-15T02:55:02;1.50;;;1.40;;
3943;SDS011;1986;52.546;13.428;2022-11-15T02:57:35;4.10;;;1.33;;
3943;SDS011;1986;52.546;13.428;2022-11-15T03:00:11;3.83;;;1.60;;
3943;SDS011;1986;52.546;13.428;2022-11-15T03:02:47;1.47;;;1.47;;
3943;SDS011;1986;52.546;13.428;2022-11-15T03:05:42;5.07;;;2.93;;
3943;SDS011;1986;52.546;13.428;2022-11-15T03:08:17;1.90;;;1.80;;
3943;SDS011;1986;52.546;13.428;2022-11-15T03:10:53;2.70;;;2.50;;
3943;SDS011;1986;52.546;13.428;2022-11-15T03:13:28;2.47;;;1.30;;
3943;SDS011;1986;52.546;13.428;2022-11-15T03:16:02;0.90;;;0.90;;
3943;SDS011;1986;52.546;13.428;2022-11-15T03:18:35;1.37;;;1.27;;
3943;SDS011;1986;52.546;13.428;2022-11-15T03:21:07;1.17;;;1.17;;
3943;SDS011;1986;52.546;13.428;2022-11-15T03:23:38;5.07;;;1.83;;
3943;SDS011;1986;52.546;13.428;2022-11-15T03:26:07;4.73;;;3.33;;
3943;SDS011;1986;52.546;13.428;2022-11-15T03:28:37;2.63;;;2.20;;
3943;SDS011;1986;52.546;13.428;2022-11-15T03:34:33;34.57;;;3.63;;
3943;SDS011;1986;52.546;13.428;2022-11-15T03:37:06;4.30;;;3.63;;
3943;SDS011;1986;52.546;13.428;2022-11-15T03:39:34;3.30;;;2.97;;
3943;SDS011;1986;52.546;13.428;2022-11-15T03:42:04;2.13;;;1.80;;
3943;SDS011;1986;52.546;13.428;2022-11-15T03:44:42;0.73;;;0.73;;
3943;SDS011;1986;52.546;13.428;2022-11-15T03:47:16;1.60;;;1.60;;
3943;SDS011;1986;52.546;13.428;2022-11-15T03:49:49;18.40;;;8.37;;
3943;SDS011;1986;52.546;13.428;2022-11-15T03:52:19;18.47;;;7.83;;
3943;SDS011;1986;52.546;13.428;2022-11-15T03:54:47;4.33;;;4.03;;
3943;SDS011;1986;52.546;13.428;2022-11-15T03:57:16;15.37;;;6.87;;
3943;SDS011;1986;52.546;13.428;2022-11-15T03:59:45;6.00;;;4.40;;
3943;SDS011;1986;52.546;13.428;2022-11-15T04:02:12;1.43;;;1.33;;
3943;SDS011;1986;52.546;13.428;2022-11-15T04:04:40;0.73;;;0.73;;
3943;SDS011;1986;52.546;13.428;2022-11-15T04:07:08;8.93;;;8.30;;
3943;SDS011;1986;52.546;13.428;2022-11-15T04:09:35;1.10;;;1.10;;
3943;SDS011;1986;52.546;13.428;2022-11-15T04:12:20;0.63;;;0.63;;
3943;SDS011;1986;52.546;13.428;2022-11-15T04:14:55;10.97;;;5.43;;
3943;SDS011;1986;52.546;13.428;2022-11-15T04:17:33;1.57;;;1.53;;
3943;SDS011;1986;52.546;13.428;2022-11-15T04:20:01;0.83;;;0.83;;
3943;SDS011;1986;52.546;13.428;2022-11-15T04:22:48;7.13;;;2.77;;
3943;SDS011;1986;52.546;13.428;2022-11-15T04:25:33;2.77;;;1.90;;
3943;SDS011;1986;52.546;13.428;2022-11-15T04:28:00;4.20;;;1.03;;
3943;SDS011;1986;52.546;13.428;2022-11-15T04:30:28;3.90;;;3.40;;
3943;SDS011;1986;52.546;13.428;2022-11-15T04:32:55;1.57;;;1.47;;
3943;SDS011;1986;52.546;13.428;2022-11-15T04:35:23;3.90;;;3.60;;
3943;SDS011;1986;52.546;13.428;2022-11-15T04:37:51;2.00;;;1.57;;
3943;SDS011;1986;52.546;13.428;2022-11-15T04:40:17;2.57;;;2.43;;
3943;SDS011;1986;52.546;13.428;2022-11-15T04:42:44;2.10;;;0.90;;
3943;SDS011;1986;52.546;13.428;2022-11-15T04:45:11;1.70;;;1.70;;
3943;SDS011;1986;52.546;13.428;2022-11-15T04:47:38;3.50;;;1.83;;
3943;SDS011;1986;52.546;13.428;2022-11-15T04:50:06;6.90;;;3.67;;
3943;SDS011;1986;52.546;13.428;2022-11-15T04:52:33;17.20;;;6.83;;
3943;SDS011;1986;52.546;13.428;2022-11-15T04:55:05;6.13;;;4.77;;
3943;SDS011;1986;52.546;13.428;2022-11-15T04:57:37;3.90;;;3.30;;
3943;SDS011;1986;52.546;13.428;2022-11-15T05:00:05;4.27;;;3.03;;
3943;SDS011;1986;52.546;13.428;2022-11-15T05:02:38;1.80;;;1.30;;
3943;SDS011;1986;52.546;13.428;2022-11-15T05:05:23;3.80;;;3.50;;
3943;SDS011;1986;52.546;13.428;2022-11-15T05:07:50;1.27;;;1.27;;
3943;SDS011;1986;52.546;13.428;2022-11-15T05:10:18;2.60;;;1.00;;
3943;SDS011;1986;52.546;13.428;2022-11-15T05:12:46;1.40;;;1.37;;
3943;SDS011;1986;52.546;13.428;2022-11-15T05:15:13;10.20;;;2.67;;
3943;SDS011;1986;52.546;13.428;2022-11-15T05:17:40;2.83;;;2.70;;
3943;SDS011;1986;52.546;13.428;2022-11-15T05:20:07;0.60;;;0.60;;
3943;SDS011;1986;52.546;13.428;2022-11-15T05:22:35;2.23;;;1.53;;
3943;SDS011;1986;52.546;13.428;2022-11-15T05:25:02;1.73;;;1.63;;
3943;SDS011;1986;52.546;13.428;2022-11-15T05:27:31;1.70;;;1.67;;
3943;SDS011;1986;52.546;13.428;2022-11-15T05:30:01;1.00;;;1.00;;
3943;SDS011;1986;52.546;13.428;2022-11-15T05:32:29;3.77;;;3.57;;
3943;SDS011;1986;52.546;13.428;2022-11-15T05:34:58;3.23;;;3.03;;
3943;SDS011;1986;52.546;13.428;2022-11-15T05:37:31;2.33;;;2.03;;
3943;SDS011;1986;52.546;13.428;2022-11-15T05:39:58;4.83;;;3.87;;
3943;SDS011;1986;52.546;13.428;2022-11-15T05:42:29;2.00;;;1.90;;
3943;SDS011;1986;52.546;13.428;2022-11-15T05:45:14;2.43;;;1.60;;
3943;SDS011;1986;52.546;13.428;2022-11-15T05:47:43;3.87;;;3.53;;
3943;SDS011;1986;52.546;13.428;2022-11-15T05:50:12;9.50;;;4.20;;
3943;SDS011;1986;52.546;13.428;2022-11-15T05:52:46;5.00;;;4.70;;
3943;SDS011;1986;52.546;13.428;2022-11-15T05:55:14;7.10;;;6.33;;
3943;SDS011;1986;52.546;13.428;2022-11-15T05:57:44;4.83;;;3.30;;
3943;SDS011;1986;52.546;13.428;2022-11-15T06:00:17;2.20;;;2.10;;
3943;SDS011;1986;52.546;13.428;2022-11-15T06:02:45;2.27;;;2.10;;
3943;SDS011;1986;52.546;13.428;2022-11-15T06:05:19;3.93;;;3.73;;
3943;SDS011;1986;52.546;13.428;2022-11-15T06:07:47;6.23;;;2.20;;
3943;SDS011;1986;52.546;13.428;2022-11-15T06:10:14;28.93;;;1.37;;
3943;SDS011;1986;52.546;13.428;2022-11-15T06:12:41;4.50;;;2.33;;
3943;SDS011;1986;52.546;13.428;2022-11-15T06:15:11;11.20;;;3.57;;
3943;SDS011;1986;52.546;13.428;2022-11-15T06:17:41;7.03;;;3.73;;
3943;SDS011;1986;52.546;13.428;2022-11-15T06:20:10;7.97;;;4.67;;
3943;SDS011;1986;52.546;13.428;2022-11-15T06:22:38;2.27;;;2.27;;
3943;SDS011;1986;52.546;13.428;2022-11-15T06:25:08;0.70;;;0.70;;
3943;SDS011;1986;52.546;13.428;2022-11-15T06:27:35;1.73;;;1.63;;
3943;SDS011;1986;52.546;13.428;2022-11-15T06:30:19;4.60;;;2.70;;
3943;SDS011;1986;52.546;13.428;2022-11-15T06:32:48;4.13;;;2.30;;
3943;SDS011;1986;52.546;13.428;2022-11-15T06:35:15;3.10;;;2.90;;
3943;SDS011;1986;52.546;13.428;2022-11-15T06:37:43;5.73;;;5.13;;
3943;SDS011;1986;52.546;13.428;2022-11-15T06:40:15;1.13;;;1.13;;
3943;SDS011;1986;52.546;13.428;2022-11-15T06:42:43;2.40;;;2.30;;
3943;SDS011;1986;52.546;13.428;2022-11-15T06:45:11;1.13;;;1.13;;
3943;SDS011;1986;52.546;13.428;2022-11-15T06:47:45;10.90;;;4.60;;
3943;SDS011;1986;52.546;13.428;2022-11-15T06:50:13;9.73;;;7.30;;
3943;SDS011;1986;52.546;13.428;2022-11-15T06:52:41;25.63;;;8.47;;
3943;SDS011;1986;52.546;13.428;2022-11-15T06:55:08;20.07;;;6.53;;
3943;SDS011;1986;52.546;13.428;2022-11-15T06:57:36;11.33;;;4.10;;
3943;SDS011;1986;52.546;13.428;2022-11-15T07:00:03;1.13;;;1.13;;
3943;SDS011;1986;52.546;13.428;2022-11-15T07:02:32;1.10;;;1.10;;
3943;SDS011;1986;52.546;13.428;2022-11-15T07:05:01;9.20;;;3.80;;
3943;SDS011;1986;52.546;13.428;2022-11-15T07:07:29;6.53;;;3.63;;
3943;SDS011;1986;52.546;13.428;2022-11-15T07:09:56;4.00;;;2.50;;
3943;SDS011;1986;52.546;13.428;2022-11-15T07:12:25;1.27;;;1.27;;
3943;SDS011;1986;52.546;13.428;2022-11-15T07:14:54;3.43;;;2.43;;
3943;SDS011;1986;52.546;13.428;2022-11-15T07:17:22;2.97;;;2.00;;
3943;SDS011;1986;52.546;13.428;2022-11-15T07:19:49;0.90;;;0.90;;
3943;SDS011;1986;52.546;13.428;2022-11-15T07:22:17;1.33;;;1.23;;
3943;SDS011;1986;52.546;13.428;2022-11-15T07:24:44;20.43;;;9.93;;
3943;SDS011;1986;52.546;13.428;2022-11-15T07:27:12;5.93;;;2.50;;
3943;SDS011;1986;52.546;13.428;2022-11-15T07:29:39;16.20;;;6.37;;
3943;SDS011;1986;52.546;13.428;2022-11-15T07:32:07;15.73;;;6.83;;
3943;SDS011;1986;52.546;13.428;2022-11-15T07:34:34;3.73;;;1.70;;
3943;SDS011;1986;52.546;13.428;2022-11-15T07:37:01;2.83;;;2.63;;
3943;SDS011;1986;52.546;13.428;2022-11-15T07:39:32;4.27;;;3.83;;
3943;SDS011;1986;52.546;13.428;2022-11-15T07:41:58;5.70;;;5.37;;
3943;SDS011;1986;52.546;13.428;2022-11-15T07:44:43;1.93;;;1.83;;
3943;SDS011;1986;52.546;13.428;2022-11-15T07:47:10;19.10;;;3.37;;
3943;SDS011;1986;52.546;13.428;2022-11-15T07:49:37;3.50;;;3.30;;
3943;SDS011;1986;52.546;13.428;2022-11-15T07:52:04;4.40;;;3.60;;
3943;SDS011;1986;52.546;13.428;2022-11-15T07:54:36;22.30;;;6.90;;
3943;SDS011;1986;52.546;13.428;2022-11-15T07:57:03;2.13;;;2.13;;
3943;SDS011;1986;52.546;13.428;2022-11-15T07:59:32;3.90;;;2.60;;
3943;SDS011;1986;52.546;13.428;2022-11-15T08:01:59;5.17;;;4.77;;
3943;SDS011;1986;52.546;13.428;2022-11-15T08:04:27;16.43;;;8.87;;
3943;SDS011;1986;52.546;13.428;2022-11-15T08:06:54;4.20;;;4.00;;
3943;SDS011;1986;52.546;13.428;2022-11-15T08:09:22;14.13;;;10.57;;
3943;SDS011;1986;52.546;13.428;2022-11-15T08:11:52;5.13;;;4.37;;
3943;SDS011;1986;52.546;13.428;2022-11-15T08:14:19;8.00;;;7.33;;
3943;SDS011;1986;52.546;13.428;2022-11-15T08:16:47;2.67;;;2.67;;
3943;SDS011;1986;52.546;13.428;2022-11-15T08:19:17;5.63;;;5.13;;
3943;SDS011;1986;52.546;13.428;2022-11-15T08:21:45;5.40;;;5.10;;
3943;SDS011;1986;52.546;13.428;2022-11-15T08:24:12;15.03;;;9.23;;
3943;SDS011;1986;52.546;13.428;2022-11-15T08:26:46;6.00;;;5.80;;
3943;SDS011;1986;52.546;13.428;2022-11-15T08:29:28;7.87;;;7.30;;
3943;SDS011;1986;52.546;13.428;2022-11-15T08:31:57;4.17;;;4.17;;
3943;SDS011;1986;52.546;13.428;2022-11-15T08:34:24;8.70;;;7.93;;
3943;SDS011;1986;52.546;13.428;2022-11-15T08:36:51;5.47;;;5.37;;
3943;SDS011;1986;52.546;13.428;2022-11-15T08:39:18;6.33;;;5.83;;
3943;SDS011;1986;52.546;13.428;2022-11-15T08:41:45;13.33;;;9.07;;
3943;SDS011;1986;52.546;13.428;2022-11-15T08:44:12;7.73;;;7.53;;
3943;SDS011;1986;52.546;13.428;2022-11-15T08:46:46;8.83;;;8.53;;
3943;SDS011;1986;52.546;13.428;2022-11-15T08:49:27;8.93;;;8.63;;
3943;SDS011;1986;52.546;13.428;2022-11-15T08:51:56;8.57;;;8.37;;
3943;SDS011;1986;52.546;13.428;2022-11-15T08:54:24;9.97;;;9.33;;
3943;SDS011;1986;52.546;13.428;2022-11-15T08:59:35;9.53;;;9.17;;
3943;SDS011;1986;52.546;13.428;2022-11-15T09:02:05;7.90;;;7.80;;
3943;SDS011;1986;52.546;13.428;2022-11-15T09:04:34;12.20;;;11.50;;
3943;SDS011;1986;52.546;13.428;2022-11-15T09:07:14;11.73;;;11.20;;
3943;SDS011;1986;52.546;13.428;2022-11-15T09:09:42;9.63;;;9.40;;
3943;SDS011;1986;52.546;13.428;2022-11-15T09:12:10;11.87;;;11.50;;
3943;SDS011;1986;52.546;13.428;2022-11-15T09:14:44;12.70;;;12.20;;
3943;SDS011;1986;52.546;13.428;2022-11-15T09:17:18;11.73;;;11.40;;
3943;SDS011;1986;52.546;13.428;2022-11-15T09:20:03;12.50;;;12.00;;
3943;SDS011;1986;52.546;13.428;2022-11-15T09:22:34;19.60;;;15.30;;
3943;SDS011;1986;52.546;13.428;2022-11-15T09:25:05;14.93;;;14.00;;
3943;SDS011;1986;52.546;13.428;2022-11-15T09:27:44;16.70;;;15.23;;
3943;SDS011;1986;52.546;13.428;2022-11-15T09:30:22;11.37;;;10.97;;
3943;SDS011;1986;52.546;13.428;2022-11-15T09:33:18;13.40;;;12.70;;
3943;SDS011;1986;52.546;13.428;2022-11-15T09:36:05;12.27;;;11.80;;
3943;SDS011;1986;52.546;13.428;2022-11-15T09:38:39;12.13;;;11.77;;
3943;SDS011;1986;52.546;13.428;2022-11-15T09:44:35;11.93;;;11.63;;
3943;SDS011;1986;52.546;13.428;2022-11-15T09:53:17;13.00;;;12.60;;
3943;SDS011;1986;52.546;13.428;2022-11-15T09:55:53;15.90;;;15.07;;
3943;SDS011;1986;52.546;13.428;2022-11-15T09:58:30;12.60;;;12.30;;
3943;SDS011;1986;52.546;13.428;2022-11-15T10:01:15;13.33;;;12.93;;
3943;SDS011;1986;52.546;13.428;2022-11-15T10:04:15;13.27;;;12.83;;
3943;SDS011;1986;52.546;13.428;2022-11-15T10:06:58;14.97;;;14.43;;
3943;SDS011;1986;52.546;13.428;2022-11-15T10:10:00;14.17;;;13.67;;
3943;SDS011;1986;52.546;13.428;2022-11-15T10:12:36;19.40;;;17.90;;
3943;SDS011;1986;52.546;13.428;2022-11-15T10:15:06;15.90;;;15.27;;
3943;SDS011;1986;52.546;13.428;2022-11-15T10:20:51;15.63;;;14.70;;
3943;SDS011;1986;52.546;13.428;2022-11-15T10:26:20;14.23;;;13.80;;
3943;SDS011;1986;52.546;13.428;2022-11-15T10:28:51;13.90;;;13.50;;
3943;SDS011;1986;52.546;13.428;2022-11-15T10:31:25;19.53;;;17.77;;
3943;SDS011;1986;52.546;13.428;2022-11-15T10:33:59;15.00;;;14.50;;
3943;SDS011;1986;52.546;13.428;2022-11-15T10:36:44;17.57;;;16.67;;
3943;SDS011;1986;52.546;13.428;2022-11-15T10:39:38;16.80;;;16.10;;
3943;SDS011;1986;52.546;13.428;2022-11-15T10:42:17;14.37;;;13.97;;
3943;SDS011;1986;52.546;13.428;2022-11-15T10:44:53;17.27;;;16.47;;
3943;SDS011;1986;52.546;13.428;2022-11-15T10:47:22;55.07;;;20.40;;
3943;SDS011;1986;52.546;13.428;2022-11-15T10:50:02;16.00;;;15.40;;
3943;SDS011;1986;52.546;13.428;2022-11-15T10:52:45;13.73;;;13.33;;
3943;SDS011;1986;52.546;13.428;2022-11-15T10:55:26;20.30;;;19.33;;
3943;SDS011;1986;52.546;13.428;2022-11-15T10:58:01;16.10;;;15.43;;
3943;SDS011;1986;52.546;13.428;2022-11-15T11:00:46;17.73;;;16.20;;
3943;SDS011;1986;52.546;13.428;2022-11-15T11:03:37;17.47;;;16.53;;
3943;SDS011;1986;52.546;13.428;2022-11-15T11:06:17;18.07;;;17.00;;
3943;SDS011;1986;52.546;13.428;2022-11-15T11:08:53;17.63;;;16.07;;
3943;SDS011;1986;52.546;13.428;2022-11-15T11:14:32;16.90;;;16.30;;
3943;SDS011;1986;52.546;13.428;2022-11-15T11:17:02;17.77;;;16.93;;
3943;SDS011;1986;52.546;13.428;2022-11-15T11:19:43;15.00;;;14.50;;
3943;SDS011;1986;52.546;13.428;2022-11-15T11:22:23;18.37;;;17.20;;
3943;SDS011;1986;52.546;13.428;2022-11-15T11:25:19;16.90;;;16.30;;
3943;SDS011;1986;52.546;13.428;2022-11-15T11:28:05;14.70;;;14.20;;
3943;SDS011;1986;52.546;13.428;2022-11-15T11:30:47;14.93;;;14.43;;
3943;SDS011;1986;52.546;13.428;2022-11-15T11:33:22;18.17;;;16.07;;
3943;SDS011;1986;52.546;13.428;2022-11-15T11:35:59;15.10;;;14.60;;
3943;SDS011;1986;52.546;13.428;2022-11-15T11:38:48;17.07;;;16.13;;
3943;SDS011;1986;52.546;13.428;2022-11-15T11:41:38;16.60;;;15.93;;
3943;SDS011;1986;52.546;13.428;2022-11-15T11:44:18;15.10;;;14.60;;
3943;SDS011;1986;52.546;13.428;2022-11-15T11:46:58;16.30;;;15.70;;
3943;SDS011;1986;52.546;13.428;2022-11-15T11:49:30;15.70;;;15.20;;
3943;SDS011;1986;52.546;13.428;2022-11-15T11:52:07;15.03;;;14.53;;
3943;SDS011;1986;52.546;13.428;2022-11-15T11:54:43;15.00;;;14.50;;
3943;SDS011;1986;52.546;13.428;2022-11-15T11:57:22;14.90;;;14.40;;
3943;SDS011;1986;52.546;13.428;2022-11-15T12:00:13;16.37;;;15.77;;
3943;SDS011;1986;52.546;13.428;2022-11-15T12:06:17;18.77;;;17.70;;
3943;SDS011;1986;52.546;13.428;2022-11-15T12:09:04;15.33;;;14.83;;
3943;SDS011;1986;52.546;13.428;2022-11-15T12:11:49;19.10;;;17.70;;
3943;SDS011;1986;52.546;13.428;2022-11-15T12:14:36;16.87;;;16.03;;
3943;SDS011;1986;52.546;13.428;2022-11-15T12:17:13;16.93;;;16.17;;
3943;SDS011;1986;52.546;13.428;2022-11-15T12:22:53;15.10;;;14.60;;
3943;SDS011;1986;52.546;13.428;2022-11-15T12:25:44;15.20;;;14.70;;
3943;SDS011;1986;52.546;13.428;2022-11-15T12:28:16;15.20;;;14.70;;
3943;SDS011;1986;52.546;13.428;2022-11-15T12:31:10;14.63;;;14.13;;
3943;SDS011;1986;52.546;13.428;2022-11-15T12:33:55;15.67;;;15.17;;
3943;SDS011;1986;52.546;13.428;2022-11-15T12:36:34;14.90;;;14.40;;
3943;SDS011;1986;52.546;13.428;2022-11-15T12:39:04;19.93;;;18.70;;
3943;SDS011;1986;52.546;13.428;2022-11-15T12:41:34;20.20;;;18.43;;
3943;SDS011;1986;52.546;13.428;2022-11-15T12:44:10;17.90;;;16.77;;
3943;SDS011;1986;52.546;13.428;2022-11-15T12:49:43;17.27;;;16.60;;
3943;SDS011;1986;52.546;13.428;2022-11-15T12:52:19;15.60;;;15.10;;
3943;SDS011;1986;52.546;13.428;2022-11-15T12:57:52;16.17;;;15.27;;
3943;SDS011;1986;52.546;13.428;2022-11-15T13:03:24;18.83;;;17.63;;
3943;SDS011;1986;52.546;13.428;2022-11-15T13:06:10;15.67;;;15.13;;
3943;SDS011;1986;52.546;13.428;2022-11-15T13:09:49;16.43;;;15.50;;
3943;SDS011;1986;52.546;13.428;2022-11-15T13:15:58;15.20;;;14.70;;
3943;SDS011;1986;52.546;13.428;2022-11-15T13:18:39;14.70;;;14.20;;
3943;SDS011;1986;52.546;13.428;2022-11-15T13:21:20;15.37;;;14.87;;
3943;SDS011;1986;52.546;13.428;2022-11-15T13:26:59;16.70;;;16.10;;
3943;SDS011;1986;52.546;13.428;2022-11-15T13:29:29;15.40;;;14.90;;
3943;SDS011;1986;52.546;13.428;2022-11-15T13:31:59;16.40;;;15.80;;
3943;SDS011;1986;52.546;13.428;2022-11-15T13:34:39;14.67;;;14.17;;
3943;SDS011;1986;52.546;13.428;2022-11-15T13:37:30;16.47;;;15.87;;
3943;SDS011;1986;52.546;13.428;2022-11-15T13:43:15;15.90;;;15.30;;
3943;SDS011;1986;52.546;13.428;2022-11-15T13:46:03;14.97;;;14.47;;
3943;SDS011;1986;52.546;13.428;2022-11-15T13:48:40;15.20;;;14.70;;
3943;SDS011;1986;52.546;13.428;2022-11-15T13:51:09;15.20;;;14.70;;
3943;SDS011;1986;52.546;13.428;2022-11-15T13:53:45;15.50;;;14.90;;
3943;SDS011;1986;52.546;13.428;2022-11-15T13:56:18;14.63;;;14.13;;
3943;SDS011;1986;52.546;13.428;2022-11-15T13:58:48;15.30;;;14.80;;
3943;SDS011;1986;52.546;13.428;2022-11-15T14:01:17;16.30;;;15.70;;
3943;SDS011;1986;52.546;13.428;2022-11-15T14:03:54;15.70;;;15.10;;
3943;SDS011;1986;52.546;13.428;2022-11-15T14:06:28;15.90;;;15.30;;
3943;SDS011;1986;52.546;13.428;2022-11-15T14:09:14;15.60;;;15.10;;
3943;SDS011;1986;52.546;13.428;2022-11-15T14:17:51;15.97;;;15.37;;
3943;SDS011;1986;52.546;13.428;2022-11-15T14:20:28;15.43;;;14.90;;
3943;SDS011;1986;52.546;13.428;2022-11-15T14:23:18;18.67;;;17.80;;
3943;SDS011;1986;52.546;13.428;2022-11-15T14:25:52;15.37;;;14.87;;
3943;SDS011;1986;52.546;13.428;2022-11-15T14:31:18;14.23;;;13.83;;
3943;SDS011;1986;52.546;13.428;2022-11-15T14:33:50;17.27;;;16.37;;
3943;SDS011;1986;52.546;13.428;2022-11-15T14:36:25;14.80;;;14.30;;
3943;SDS011;1986;52.546;13.428;2022-11-15T14:39:13;15.10;;;14.40;;
3943;SDS011;1986;52.546;13.428;2022-11-15T14:41:52;14.73;;;14.23;;
3943;SDS011;1986;52.546;13.428;2022-11-15T14:53:42;20.27;;;19.13;;
3943;SDS011;1986;52.546;13.428;2022-11-15T14:56:15;15.70;;;15.13;;
3943;SDS011;1986;52.546;13.428;2022-11-15T14:58:56;15.90;;;15.20;;
3943;SDS011;1986;52.546;13.428;2022-11-15T15:01:37;17.50;;;16.57;;
3943;SDS011;1986;52.546;13.428;2022-11-15T15:04:18;15.27;;;14.73;;
3943;SDS011;1986;52.546;13.428;2022-11-15T15:16:11;14.80;;;14.33;;
3943;SDS011;1986;52.546;13.428;2022-11-15T15:18:57;13.50;;;13.10;;
3943;SDS011;1986;52.546;13.428;2022-11-15T15:21:27;18.53;;;17.57;;
3943;SDS011;1986;52.546;13.428;2022-11-15T15:24:09;15.00;;;14.50;;
3943;SDS011;1986;52.546;13.428;2022-11-15T15:26:54;15.37;;;14.40;;
3943;SDS011;1986;52.546;13.428;2022-11-15T15:29:41;14.10;;;13.70;;
3943;SDS011;1986;52.546;13.428;2022-11-15T15:32:09;14.70;;;14.20;;
3943;SDS011;1986;52.546;13.428;2022-11-15T15:34:41;18.83;;;14.73;;
3943;SDS011;1986;52.546;13.428;2022-11-15T15:37:22;17.47;;;16.80;;
3943;SDS011;1986;52.546;13.428;2022-11-15T15:39:51;14.80;;;14.30;;
3943;SDS011;1986;52.546;13.428;2022-11-15T15:42:42;14.63;;;14.10;;
3943;SDS011;1986;52.546;13.428;2022-11-15T15:45:21;13.50;;;13.10;;
3943;SDS011;1986;52.546;13.428;2022-11-15T15:47:53;12.63;;;12.33;;
3943;SDS011;1986;52.546;13.428;2022-11-15T15:50:36;12.60;;;12.20;;
3943;SDS011;1986;52.546;13.428;2022-11-15T15:53:06;14.63;;;14.10;;
3943;SDS011;1986;52.546;13.428;2022-11-15T15:58:59;13.50;;;13.10;;
3943;SDS011;1986;52.546;13.428;2022-11-15T16:01:47;13.10;;;12.70;;
3943;SDS011;1986;52.546;13.428;2022-11-15T16:04:31;12.00;;;11.70;;
3943;SDS011;1986;52.546;13.428;2022-11-15T16:07:01;14.77;;;14.03;;
3943;SDS011;1986;52.546;13.428;2022-11-15T16:09:39;12.30;;;12.00;;
3943;SDS011;1986;52.546;13.428;2022-11-15T16:12:24;13.90;;;13.17;;
3943;SDS011;1986;52.546;13.428;2022-11-15T16:14:57;13.20;;;12.63;;
3943;SDS011;1986;52.546;13.428;2022-11-15T16:17:31;12.60;;;12.20;;
3943;SDS011;1986;52.546;13.428;2022-11-15T16:20:14;15.93;;;15.23;;
3943;SDS011;1986;52.546;13.428;2022-11-15T16:22:54;12.73;;;12.23;;
3943;SDS011;1986;52.546;13.428;2022-11-15T16:25:23;18.03;;;16.33;;
3943;SDS011;1986;52.546;13.428;2022-11-15T16:27:57;13.13;;;12.57;;
3943;SDS011;1986;52.546;13.428;2022-11-15T16:30:26;14.67;;;13.33;;
3943;SDS011;1986;52.546;13.428;2022-11-15T16:32:57;11.60;;;11.30;;
3943;SDS011;1986;52.546;13.428;2022-11-15T16:35:33;10.50;;;10.20;;
3943;SDS011;1986;52.546;13.428;2022-11-15T16:38:03;10.30;;;10.00;;
3943;SDS011;1986;52.546;13.428;2022-11-15T16:40:38;12.83;;;12.33;;
3943;SDS011;1986;52.546;13.428;2022-11-15T16:43:05;9.50;;;9.30;;
3943;SDS011;1986;52.546;13.428;2022-11-15T16:45:33;9.23;;;9.03;;
3943;SDS011;1986;52.546;13.428;2022-11-15T16:48:10;11.80;;;11.13;;
3943;SDS011;1986;52.546;13.428;2022-11-15T16:50:49;11.20;;;10.60;;
3943;SDS011;1986;52.546;13.428;2022-11-15T16:53:16;9.93;;;9.63;;
3943;SDS011;1986;52.546;13.428;2022-11-15T16:55:43;12.07;;;11.10;;